createdAt,value
2018-11-28T00:02:17.622Z,30.40
2018-11-28T00:05:22.199Z,29.60
2018-11-28T00:08:26.213Z,34.30
2018-11-28T00:11:30.132Z,28.23
2018-11-28T00:14:34.120Z,32.40
2018-11-28T00:17:38.476Z,28.90
2018-11-28T00:20:42.800Z,28.93
2018-11-28T00:23:47.066Z,29.93
2018-11-28T00:26:51.413Z,26.70
2018-11-28T00:29:55.725Z,29.90
2018-11-28T00:32:59.646Z,26.33
2018-11-28T00:36:03.573Z,27.80
2018-11-28T00:39:09.095Z,35.07
2018-11-28T00:42:13.438Z,28.83
2018-11-28T00:45:23.119Z,27.00
2018-11-28T00:48:27.059Z,30.00
2018-11-28T00:51:31.507Z,28.13
2018-11-28T00:54:35.748Z,27.33
2018-11-28T00:57:39.659Z,28.17
2018-11-28T01:00:44.069Z,27.67
2018-11-28T01:03:48.435Z,32.43
2018-11-28T01:06:52.703Z,26.30
2018-11-28T01:09:58.161Z,29.00
2018-11-28T01:13:02.587Z,24.53
2018-11-28T01:16:06.874Z,28.63
2018-11-28T01:19:11.209Z,31.50
2018-11-28T01:22:15.364Z,34.33
2018-11-28T01:25:20.377Z,28.10
2018-11-28T01:28:24.752Z,32.30
2018-11-28T01:31:29.011Z,30.93
2018-11-28T01:34:33.448Z,27.47
2018-11-28T01:37:38.024Z,22.40
2018-11-28T01:40:42.213Z,18.53
2018-11-28T01:43:46.524Z,18.23
2018-11-28T01:46:50.616Z,18.20
2018-11-28T01:49:54.488Z,15.93
2018-11-28T01:52:58.795Z,12.60
2018-11-28T01:56:03.097Z,15.60
2018-11-28T01:59:07.025Z,14.97
2018-11-28T02:02:11.084Z,11.80
2018-11-28T02:05:15.063Z,9.67
2018-11-28T02:08:19.279Z,12.00
2018-11-28T02:11:23.459Z,12.87
2018-11-28T02:14:27.502Z,13.00
2018-11-28T02:17:31.969Z,12.00
2018-11-28T02:20:36.138Z,10.13
2018-11-28T02:23:40.133Z,9.97
2018-11-28T02:26:44.534Z,12.07
2018-11-28T02:29:48.481Z,8.90
2018-11-28T02:32:52.915Z,9.87
2018-11-28T02:35:56.845Z,10.20
2018-11-28T02:39:00.750Z,9.20
2018-11-28T02:42:04.709Z,9.00
2018-11-28T02:45:14.613Z,10.03
2018-11-28T02:48:18.908Z,9.70
2018-11-28T02:51:23.260Z,11.40
2018-11-28T02:54:27.683Z,10.17
2018-11-28T02:57:31.886Z,14.40
2018-11-28T03:00:36.012Z,11.77
2018-11-28T03:03:40.185Z,14.60
2018-11-28T03:06:44.588Z,14.47
2018-11-28T03:09:48.993Z,12.57
2018-11-28T03:12:54.063Z,15.93
2018-11-28T03:16:00.668Z,13.13
2018-11-28T03:19:04.969Z,13.77
2018-11-28T03:22:09.224Z,7.90
2018-11-28T03:25:13.699Z,11.80
2018-11-28T03:28:18.633Z,9.87
2018-11-28T03:31:22.721Z,8.20
2018-11-28T03:34:27.015Z,9.17
2018-11-28T03:37:31.323Z,7.97
2018-11-28T03:40:35.507Z,9.00
2018-11-28T03:43:39.905Z,9.70
2018-11-28T03:46:44.135Z,9.13
2018-11-28T03:49:48.548Z,9.27
2018-11-28T03:52:52.805Z,8.20
2018-11-28T03:55:57.084Z,9.00
2018-11-28T03:59:01.570Z,8.87
2018-11-28T04:02:06.205Z,8.80
2018-11-28T04:05:10.790Z,9.63
2018-11-28T04:08:14.867Z,7.10
2018-11-28T04:11:19.212Z,7.43
2018-11-28T04:14:23.315Z,8.80
2018-11-28T04:17:27.721Z,8.60
2018-11-28T04:20:32.029Z,8.57
2018-11-28T04:23:36.342Z,12.77
2018-11-28T04:26:40.644Z,8.50
2018-11-28T04:29:44.861Z,8.97
2018-11-28T04:32:49.327Z,7.27
2018-11-28T04:35:53.562Z,7.70
2018-11-28T04:38:57.826Z,8.43
2018-11-28T04:42:02.132Z,8.60
2018-11-28T04:45:07.734Z,15.73
2018-11-28T04:48:12.030Z,9.83
2018-11-28T04:51:16.134Z,10.37
2018-11-28T04:54:20.391Z,10.87
2018-11-28T04:57:24.883Z,8.83
2018-11-28T05:00:29.125Z,11.80
2018-11-28T05:03:34.120Z,8.20
2018-11-28T05:07:43.464Z,10.90
2018-11-28T05:10:47.713Z,16.03
2018-11-28T05:13:51.917Z,19.10
2018-11-28T05:16:56.172Z,21.00
2018-11-28T05:20:00.461Z,23.90
2018-11-28T05:23:05.920Z,28.10
2018-11-28T05:26:10.267Z,24.50
2018-11-28T05:29:15.302Z,31.40
2018-11-28T05:32:19.640Z,28.33
2018-11-28T05:35:27.783Z,31.70
2018-11-28T05:38:31.905Z,32.70
2018-11-28T05:41:36.150Z,33.47
2018-11-28T05:44:40.363Z,38.30
2018-11-28T05:47:44.521Z,28.20
2018-11-28T05:50:48.779Z,32.70
2018-11-28T05:53:53.286Z,35.17
2018-11-28T05:56:57.470Z,30.90
2018-11-28T06:00:01.975Z,35.77
2018-11-28T06:03:08.105Z,36.57
2018-11-28T06:06:12.306Z,36.73
2018-11-28T06:09:22.954Z,33.87
2018-11-28T06:12:27.239Z,35.10
2018-11-28T06:15:31.738Z,36.30
2018-11-28T06:18:35.935Z,37.27
2018-11-28T06:21:40.595Z,38.53
2018-11-28T06:24:44.994Z,46.00
2018-11-28T06:27:49.427Z,37.53
2018-11-28T06:30:53.510Z,38.53
2018-11-28T06:33:57.630Z,38.40
2018-11-28T06:37:02.574Z,36.83
2018-11-28T06:40:12.607Z,40.27
2018-11-28T06:43:16.808Z,37.20
2018-11-28T06:46:21.180Z,37.13
2018-11-28T06:49:25.335Z,38.40
2018-11-28T06:52:29.601Z,40.30
2018-11-28T06:55:33.889Z,38.40
2018-11-28T06:58:38.257Z,45.63
2018-11-28T07:01:42.655Z,37.20
2018-11-28T07:04:47.964Z,39.17
2018-11-28T07:07:51.552Z,36.67
2018-11-28T07:10:55.739Z,47.37
2018-11-28T07:14:06.505Z,41.30
2018-11-28T07:17:10.852Z,41.97
2018-11-28T07:20:15.703Z,35.20
2018-11-28T07:23:20.034Z,42.67
2018-11-28T07:26:24.362Z,37.37
2018-11-28T07:29:28.662Z,39.17
2018-11-28T07:32:32.845Z,43.63
2018-11-28T07:35:37.431Z,37.40
2018-11-28T07:38:41.818Z,39.73
2018-11-28T07:41:46.155Z,34.00
2018-11-28T07:44:50.679Z,36.37
2018-11-28T07:47:55.122Z,32.80
2018-11-28T07:50:59.631Z,36.93
2018-11-28T07:54:03.730Z,34.53
2018-11-28T07:57:07.844Z,33.50
2018-11-28T08:00:14.050Z,34.60
2018-11-28T08:03:18.485Z,31.93
2018-11-28T08:06:23.439Z,32.63
2018-11-28T08:09:27.906Z,37.30
2018-11-28T08:12:32.128Z,38.87
2018-11-28T08:15:36.604Z,41.80
2018-11-28T08:18:42.113Z,31.70
2018-11-28T08:21:45.220Z,36.47
2018-11-28T08:24:49.385Z,36.17
2018-11-28T08:27:53.913Z,38.10
2018-11-28T08:30:58.577Z,35.63
2018-11-28T08:34:03.007Z,32.73
2018-11-28T08:37:07.391Z,37.63
2018-11-28T08:40:13.686Z,31.03
2018-11-28T08:43:18.721Z,33.30
2018-11-28T08:46:23.117Z,35.13
2018-11-28T08:49:27.585Z,35.87
2018-11-28T08:52:32.001Z,33.77
2018-11-28T08:55:36.171Z,29.33
2018-11-28T08:58:40.549Z,28.93
2018-11-28T09:01:44.969Z,35.93
2018-11-28T09:04:49.471Z,25.43
2018-11-28T09:07:53.983Z,33.90
2018-11-28T09:10:58.449Z,33.73
2018-11-28T09:14:04.665Z,28.40
2018-11-28T09:17:07.617Z,25.90
2018-11-28T09:20:12.982Z,27.80
2018-11-28T09:23:17.571Z,31.53
2018-11-28T09:26:21.512Z,29.33
2018-11-28T09:29:25.842Z,26.97
2018-11-28T09:32:30.122Z,33.40
2018-11-28T09:35:34.542Z,33.53
2018-11-28T09:38:38.900Z,29.97
2018-11-28T09:41:42.956Z,30.80
2018-11-28T09:44:47.180Z,27.63
2018-11-28T09:47:51.584Z,28.07
2018-11-28T09:50:55.772Z,32.83
2018-11-28T09:54:00.067Z,27.23
2018-11-28T09:57:04.031Z,23.40
2018-11-28T10:00:12.334Z,26.97
2018-11-28T10:03:16.733Z,31.57
2018-11-28T10:06:21.153Z,31.07
2018-11-28T10:09:25.484Z,27.13
2018-11-28T10:12:29.857Z,27.60
2018-11-28T10:15:35.742Z,28.73
2018-11-28T10:18:38.527Z,27.77
2018-11-28T10:21:42.820Z,24.70
2018-11-28T10:24:53.630Z,27.50
2018-11-28T10:28:04.435Z,26.50
2018-11-28T10:31:08.869Z,24.17
2018-11-28T10:34:13.713Z,22.87
2018-11-28T10:37:17.947Z,27.67
2018-11-28T10:40:23.035Z,25.90
2018-11-28T10:43:27.289Z,23.20
2018-11-28T10:46:31.733Z,27.47
2018-11-28T10:49:35.948Z,24.53
2018-11-28T10:52:40.477Z,27.57
2018-11-28T10:55:44.941Z,27.87
2018-11-28T10:58:49.572Z,30.63
2018-11-28T11:01:59.344Z,20.43
2018-11-28T11:05:09.525Z,20.23
2018-11-28T11:08:18.783Z,24.27
2018-11-28T11:11:25.023Z,20.20
2018-11-28T11:14:34.304Z,23.10
2018-11-28T11:17:38.976Z,20.67
2018-11-28T11:20:43.271Z,20.10
2018-11-28T11:23:47.570Z,21.00
2018-11-28T11:26:52.364Z,19.10
2018-11-28T11:29:56.706Z,18.90
2018-11-28T11:33:01.384Z,18.53
2018-11-28T11:36:06.039Z,19.60
2018-11-28T11:39:10.401Z,20.03
2018-11-28T11:42:14.550Z,23.30
2018-11-28T11:45:19.070Z,19.20
2018-11-28T11:48:23.559Z,22.93
2018-11-28T11:51:27.513Z,21.30
2018-11-28T11:54:32.246Z,18.00
2018-11-28T11:57:36.822Z,20.20
2018-11-28T12:00:42.420Z,20.40
2018-11-28T12:03:46.813Z,19.17
2018-11-28T12:06:51.981Z,20.27
2018-11-28T12:09:57.450Z,20.90
2018-11-28T12:13:02.123Z,19.17
2018-11-28T12:16:06.527Z,18.50
2018-11-28T12:19:10.845Z,19.23
2018-11-28T12:22:15.193Z,20.97
2018-11-28T12:25:19.632Z,19.13
2018-11-28T12:28:23.916Z,19.13
2018-11-28T12:31:28.292Z,19.47
2018-11-28T12:34:32.781Z,17.47
2018-11-28T12:37:37.256Z,17.57
2018-11-28T12:40:41.696Z,18.07
2018-11-28T12:43:45.879Z,18.30
2018-11-28T12:46:50.466Z,17.37
2018-11-28T12:49:55.725Z,17.30
2018-11-28T12:53:01.206Z,19.73
2018-11-28T12:56:06.051Z,18.03
2018-11-28T12:59:10.458Z,20.57
2018-11-28T13:02:15.587Z,16.60
2018-11-28T13:05:21.957Z,17.00
2018-11-28T13:08:26.449Z,18.73
2018-11-28T13:11:31.413Z,16.27
2018-11-28T13:14:35.802Z,16.17
2018-11-28T13:17:40.163Z,16.23
2018-11-28T13:20:44.477Z,15.90
2018-11-28T13:23:48.848Z,17.20
2018-11-28T13:26:53.359Z,16.70
2018-11-28T13:29:58.014Z,14.73
2018-11-28T13:33:02.445Z,15.03
2018-11-28T13:36:06.923Z,17.07
2018-11-28T13:39:11.271Z,17.07
2018-11-28T13:42:16.564Z,15.00
2018-11-28T13:45:27.704Z,14.43
2018-11-28T13:48:32.400Z,14.00
2018-11-28T13:51:43.369Z,15.10
2018-11-28T13:55:38.597Z,15.90
2018-11-28T13:57:53.108Z,19.50
2018-11-28T14:00:57.366Z,15.80
2018-11-28T14:04:01.528Z,22.07
2018-11-28T14:07:06.367Z,16.60
2018-11-28T14:10:12.497Z,17.00
2018-11-28T14:13:17.048Z,17.37
2018-11-28T14:16:21.552Z,17.60
2018-11-28T14:19:25.709Z,18.23
2018-11-28T14:22:30.238Z,22.73
2018-11-28T14:25:34.788Z,17.90
2018-11-28T14:28:39.141Z,13.83
2018-11-28T14:31:43.627Z,18.07
2018-11-28T14:34:47.743Z,14.97
2018-11-28T14:37:51.841Z,18.30
2018-11-28T14:40:55.837Z,18.60
2018-11-28T14:44:00.135Z,15.97
2018-11-28T14:47:04.440Z,16.87
2018-11-28T14:50:13.737Z,17.53
2018-11-28T14:53:18.101Z,16.33
2018-11-28T14:56:22.713Z,16.67
2018-11-28T14:59:28.043Z,19.53
2018-11-28T15:02:32.310Z,18.30
2018-11-28T15:05:49.851Z,19.80
2018-11-28T15:08:58.301Z,18.87
2018-11-28T15:12:02.982Z,20.47
2018-11-28T15:15:08.373Z,21.17
2018-11-28T15:18:12.693Z,22.60
2018-11-28T15:21:17.374Z,20.63
2018-11-28T15:24:21.827Z,19.20
2018-11-28T15:27:26.047Z,22.33
2018-11-28T15:30:30.523Z,23.70
2018-11-28T15:33:35.037Z,19.60
2018-11-28T15:36:39.650Z,21.10
2018-11-28T15:39:44.101Z,17.93
2018-11-28T15:42:48.602Z,20.30
2018-11-28T15:45:53.697Z,19.27
2018-11-28T15:49:04.240Z,22.23
2018-11-28T15:52:08.703Z,18.40
2018-11-28T15:55:13.695Z,19.53
2018-11-28T15:58:18.930Z,20.63
2018-11-28T16:01:23.245Z,21.65
2018-11-28T16:04:27.690Z,19.30
2018-11-28T16:07:32.065Z,18.87
2018-11-28T16:10:41.454Z,20.90
2018-11-28T16:13:45.779Z,23.67
2018-11-28T16:16:50.208Z,24.27
2018-11-28T16:19:54.654Z,17.80
2018-11-28T16:23:04.225Z,28.83
2018-11-28T16:26:03.452Z,26.83
2018-11-28T16:29:07.996Z,27.70
2018-11-28T16:32:12.901Z,26.50
2018-11-28T16:35:19.268Z,25.43
2018-11-28T16:38:23.597Z,28.33
2018-11-28T16:41:27.977Z,26.47
2018-11-28T16:44:32.326Z,28.53
2018-11-28T16:47:37.007Z,26.30
2018-11-28T16:50:41.394Z,27.27
2018-11-28T16:53:45.617Z,25.07
2018-11-28T16:56:50.016Z,29.50
2018-11-28T16:59:54.283Z,25.83
2018-11-28T17:02:58.769Z,28.73
2018-11-28T17:06:03.630Z,30.57
2018-11-28T17:09:09.487Z,32.43
2018-11-28T17:12:14.079Z,30.77
2018-11-28T17:15:18.873Z,38.63
2018-11-28T17:18:23.308Z,31.27
2018-11-28T17:21:27.648Z,28.03
2018-11-28T17:24:32.117Z,35.63
2018-11-28T17:27:36.756Z,21.33
2018-11-28T17:30:41.099Z,23.20
2018-11-28T17:33:45.673Z,19.63
2018-11-28T17:36:50.093Z,15.73
2018-11-28T17:39:54.220Z,17.30
2018-11-28T17:42:59.412Z,14.37
2018-11-28T17:46:03.973Z,13.43
2018-11-28T17:49:08.413Z,15.20
2018-11-28T17:52:12.737Z,8.57
2018-11-28T17:55:17.759Z,13.40
2018-11-28T17:58:21.756Z,12.77
2018-11-28T18:01:26.144Z,7.80
2018-11-28T18:04:30.611Z,11.73
2018-11-28T18:07:35.049Z,11.00
2018-11-28T18:10:40.015Z,7.93
2018-11-28T18:13:45.493Z,9.07
2018-11-28T18:16:51.036Z,10.10
2018-11-28T18:19:57.725Z,8.33
2018-11-28T18:23:04.907Z,11.43
2018-11-28T18:26:11.965Z,8.10
2018-11-28T18:29:16.169Z,8.20
2018-11-28T18:32:20.609Z,9.80
2018-11-28T18:35:24.937Z,9.93
2018-11-28T18:38:29.625Z,10.77
2018-11-28T18:41:34.143Z,12.23
2018-11-28T18:44:39.465Z,9.90
2018-11-28T18:47:43.593Z,12.23
2018-11-28T18:50:48.122Z,15.50
2018-11-28T18:53:52.472Z,16.30
2018-11-28T18:56:56.984Z,14.23
2018-11-28T19:00:01.864Z,12.70
2018-11-28T19:03:07.495Z,10.73
2018-11-28T19:06:11.833Z,11.30
2018-11-28T19:09:21.461Z,12.37
2018-11-28T19:12:25.969Z,14.93
2018-11-28T19:15:30.431Z,15.80
2018-11-28T19:18:34.680Z,13.57
2018-11-28T19:21:39.026Z,13.30
2018-11-28T19:24:43.356Z,12.00
2018-11-28T19:27:47.700Z,17.90
2018-11-28T19:30:52.465Z,11.03
2018-11-28T19:33:56.690Z,15.00
2018-11-28T19:37:08.567Z,12.80
2018-11-28T19:40:30.441Z,11.67
2018-11-28T19:43:35.072Z,11.93
2018-11-28T19:46:39.048Z,17.97
2018-11-28T19:49:43.598Z,13.77
2018-11-28T19:52:49.189Z,14.70
2018-11-28T19:55:53.585Z,13.23
2018-11-28T19:58:58.169Z,16.53
2018-11-28T20:02:02.469Z,15.10
2018-11-28T20:05:06.855Z,16.23
2018-11-28T20:08:11.855Z,13.43
2018-11-28T20:11:16.998Z,17.70
2018-11-28T20:14:21.252Z,15.67
2018-11-28T20:17:25.604Z,14.20
2018-11-28T20:20:29.780Z,14.20
2018-11-28T20:23:34.478Z,13.63
2018-11-28T20:26:39.743Z,15.90
2018-11-28T20:29:44.524Z,12.73
2018-11-28T20:32:49.455Z,15.80
2018-11-28T20:35:55.852Z,15.90
2018-11-28T20:39:00.160Z,16.60
2018-11-28T20:42:05.736Z,14.37
2018-11-28T20:45:11.012Z,14.85
2018-11-28T20:48:16.271Z,16.23
2018-11-28T20:51:21.024Z,13.00
2018-11-28T20:54:26.546Z,13.63
2018-11-28T20:57:31.371Z,12.93
2018-11-28T21:00:36.418Z,18.37
2018-11-28T21:03:40.764Z,15.07
2018-11-28T21:06:45.491Z,17.10
2018-11-28T21:09:54.267Z,16.77
2018-11-28T21:12:58.618Z,15.93
2018-11-28T21:16:04.964Z,18.30
2018-11-28T21:19:08.956Z,18.30
2018-11-28T21:22:13.370Z,16.03
2018-11-28T21:25:18.014Z,15.63
2018-11-28T21:28:24.683Z,19.83
2018-11-28T21:31:29.231Z,16.97
2018-11-28T21:34:33.244Z,15.10
2018-11-28T21:37:37.711Z,21.93
2018-11-28T21:40:42.138Z,18.50
2018-11-28T21:43:47.594Z,22.60
2018-11-28T21:46:51.520Z,18.00
2018-11-28T21:49:55.624Z,24.60
2018-11-28T21:53:00.139Z,20.40
2018-11-28T21:56:04.252Z,25.40
2018-11-28T21:59:08.783Z,20.20
2018-11-28T22:02:13.296Z,21.63
2018-11-28T22:05:18.394Z,31.70
2018-11-28T22:08:22.837Z,20.80
2018-11-28T22:11:27.189Z,27.40
2018-11-28T22:14:31.495Z,21.27
2018-11-28T22:17:35.803Z,28.37
2018-11-28T22:20:40.392Z,22.93
2018-11-28T22:23:44.760Z,22.00
2018-11-28T22:26:49.299Z,19.50
2018-11-28T22:29:53.795Z,18.10
2018-11-28T22:32:58.362Z,18.03
2018-11-28T22:36:02.785Z,20.93
2018-11-28T22:39:09.247Z,19.73
2018-11-28T22:42:13.649Z,19.73
2018-11-28T22:45:34.393Z,17.77
2018-11-28T22:48:38.498Z,21.47
2018-11-28T22:51:42.517Z,17.80
2018-11-28T22:54:47.006Z,15.20
2018-11-28T22:57:51.293Z,18.50
2018-11-28T23:01:00.727Z,18.80
2018-11-28T23:04:05.335Z,22.20
2018-11-28T23:07:09.682Z,19.53
2018-11-28T23:10:14.098Z,23.47
2018-11-28T23:13:20.736Z,14.87
2018-11-28T23:16:24.986Z,12.40
2018-11-28T23:19:29.216Z,16.50
2018-11-28T23:22:33.431Z,15.73
2018-11-28T23:25:37.856Z,15.93
2018-11-28T23:28:42.165Z,16.93
2018-11-28T23:31:46.335Z,16.13
2018-11-28T23:34:50.713Z,14.33
2018-11-28T23:37:55.069Z,15.70
2018-11-28T23:40:59.526Z,18.70
2018-11-28T23:44:04.024Z,17.30
2018-11-28T23:47:08.428Z,22.97
2018-11-28T23:50:15.384Z,19.90
2018-11-28T23:53:19.623Z,15.77
2018-11-28T23:56:23.828Z,15.83
2018-11-28T23:59:28.150Z,17.30
